Time;durP1;ratioP1;P1;durP2;ratioP2;P2;SDS_P1;SDS_P2;PMS_P1;PMS_P2;Temp;Humidity;BMP_temperature;BMP_pressure;BME280_temperature;BME280_humidity;BME280_pressure;Samples;Min_cycle;Max_cycle;Signal;HPM_P1;HPM_P2
2023/12/05 00:00:18;;;;;;;0.70;0.70;;;;;;;0.30;100.00;95671.91;29395;222;63000;-58
2023/12/05 00:00:49;;;;;;;0.70;0.70;;;;;;;0.30;100.00;95676.44;29373;314;63009;-60
2023/12/05 00:01:20;;;;;;;0.80;0.80;;;;;;;0.28;100.00;95678.56;29373;197;63005;-58
2023/12/05 00:01:52;;;;;;;1.23;1.23;;;;;;;0.27;100.00;95674.28;29373;197;63015;-59
2023/12/05 00:02:23;;;;;;;0.70;0.70;;;;;;;0.29;100.00;95685.50;29373;205;63004;-58
2023/12/05 00:02:54;;;;;;;0.60;0.60;;;;;;;0.31;100.00;95673.53;29395;309;63013;-58
2023/12/05 00:03:26;;;;;;;0.70;0.70;;;;;;;0.33;100.00;95675.94;29371;231;64009;-59
2023/12/05 00:04:04;;;;;;;0.68;0.68;;;;;;;0.34;100.00;95674.88;29395;223;63009;-59
2023/12/05 00:04:39;;;;;;;0.62;0.62;;;;;;;0.35;100.00;95671.09;29373;231;63004;-57
2023/12/05 00:05:11;;;;;;;0.70;0.70;;;;;;;0.40;100.00;95665.81;29373;219;63008;-58
2023/12/05 00:05:43;;;;;;;0.80;0.80;;;;;;;0.46;100.00;95666.66;29373;202;63005;-69
2023/12/05 00:06:14;;;;;;;0.82;0.82;;;;;;;0.46;100.00;95669.31;29395;224;63009;-58
2023/12/05 00:06:46;;;;;;;0.70;0.70;;;;;;;0.49;100.00;95664.25;29395;236;63012;-58
2023/12/05 00:07:19;;;;;;;0.70;0.70;;;;;;;0.49;100.00;95669.59;29395;244;63005;-58
2023/12/05 00:07:50;;;;;;;0.60;0.60;;;;;;;0.50;100.00;95665.88;29395;237;63009;-58
2023/12/05 00:08:21;;;;;;;0.70;0.70;;;;;;;0.51;100.00;95670.16;29395;231;63009;-59
2023/12/05 00:08:53;;;;;;;0.70;0.70;;;;;;;0.52;100.00;95669.09;29394;257;64009;-58
2023/12/05 00:09:25;;;;;;;0.60;0.60;;;;;;;0.53;100.00;95667.22;29373;238;63009;-58
2023/12/05 00:09:58;;;;;;;1.12;1.12;;;;;;;0.56;100.00;95675.50;29395;285;63010;-60
2023/12/05 00:10:32;;;;;;;0.80;0.80;;;;;;;0.58;100.00;95662.72;29395;368;63015;-58
2023/12/05 00:11:08;;;;;;;0.70;0.70;;;;;;;0.60;100.00;95665.94;29395;306;63004;-58
2023/12/05 00:11:42;;;;;;;0.70;0.70;;;;;;;0.57;100.00;95666.44;29394;202;64013;-58
2023/12/05 00:12:14;;;;;;;0.70;0.70;;;;;;;0.61;100.00;95666.72;29395;218;63004;-60
2023/12/05 00:12:45;;;;;;;0.70;0.70;;;;;;;0.59;100.00;95660.84;29395;254;63014;-59
2023/12/05 00:13:16;;;;;;;0.70;0.70;;;;;;;0.59;100.00;95659.00;29373;238;63014;-59
2023/12/05 00:13:48;;;;;;;0.80;0.80;;;;;;;0.58;100.00;95672.59;29373;233;63009;-59
2023/12/05 00:14:19;;;;;;;0.60;0.60;;;;;;;0.55;100.00;95668.56;29373;333;63012;-59
2023/12/05 00:14:50;;;;;;;0.70;0.70;;;;;;;0.53;100.00;95672.56;29373;221;63014;-59
2023/12/05 00:15:23;;;;;;;0.68;0.68;;;;;;;0.52;100.00;95663.75;29373;268;63010;-58
2023/12/05 00:15:54;;;;;;;0.70;0.70;;;;;;;0.59;100.00;95666.19;29373;256;63009;-58
2023/12/05 00:16:27;;;;;;;0.70;0.70;;;;;;;0.64;100.00;95658.22;29373;198;63005;-58
2023/12/05 00:16:58;;;;;;;0.70;0.70;;;;;;;0.65;100.00;95665.16;29371;232;64013;-58
2023/12/05 00:17:30;;;;;;;1.42;1.35;;;;;;;0.70;100.00;95656.34;29395;202;63010;-57
2023/12/05 00:18:01;;;;;;;0.70;0.70;;;;;;;0.71;100.00;95658.75;29395;213;63009;-59
2023/12/05 00:18:32;;;;;;;0.73;0.73;;;;;;;0.75;100.00;95657.16;29373;196;63004;-58
2023/12/05 00:19:03;;;;;;;0.70;0.70;;;;;;;0.81;100.00;95660.66;29373;220;63009;-58
2023/12/05 00:19:35;;;;;;;1.37;1.37;;;;;;;0.83;100.00;95663.87;29395;246;63004;-59
2023/12/05 00:20:07;;;;;;;0.73;0.73;;;;;;;0.85;100.00;95657.22;29373;313;63008;-58
2023/12/05 00:20:38;;;;;;;0.75;0.75;;;;;;;0.81;100.00;95652.66;29373;226;63004;-58
2023/12/05 00:21:10;;;;;;;0.70;0.70;;;;;;;0.84;100.00;95650.28;29373;216;63009;-58
2023/12/05 00:21:41;;;;;;;0.70;0.70;;;;;;;0.79;100.00;95652.12;29373;228;63020;-59
2023/12/05 00:22:12;;;;;;;0.70;0.70;;;;;;;0.74;100.00;95657.44;29371;237;64014;-58
2023/12/05 00:22:44;;;;;;;0.70;0.70;;;;;;;0.68;100.00;95651.28;29395;204;63018;-57
2023/12/05 00:23:16;;;;;;;0.70;0.70;;;;;;;0.69;100.00;95654.75;29395;216;63009;-58
2023/12/05 00:23:47;;;;;;;0.70;0.70;;;;;;;0.68;100.00;95655.81;29395;216;63005;-59
2023/12/05 00:24:18;;;;;;;0.70;0.70;;;;;;;0.63;100.00;95654.75;29395;216;63018;-59
2023/12/05 00:24:49;;;;;;;1.00;1.00;;;;;;;0.63;100.00;95660.06;29395;204;63005;-59
2023/12/05 00:25:21;;;;;;;0.70;0.70;;;;;;;0.60;100.00;95662.47;29395;240;63009;-59
2023/12/05 00:25:52;;;;;;;0.70;0.70;;;;;;;0.57;100.00;95662.97;29395;213;63004;-59
2023/12/05 00:26:24;;;;;;;0.95;0.95;;;;;;;0.56;100.00;95659.50;29395;197;63009;-59
2023/12/05 00:26:55;;;;;;;0.68;0.68;;;;;;;0.55;100.00;95660.56;29395;218;63004;-59
2023/12/05 00:27:28;;;;;;;1.00;1.00;;;;;;;0.51;100.00;95661.34;29394;198;64013;-61
2023/12/05 00:27:59;;;;;;;0.70;0.70;;;;;;;0.50;100.00;95660.53;29395;254;63004;-58
2023/12/05 00:28:31;;;;;;;0.80;0.80;;;;;;;0.54;100.00;95666.97;29395;295;63009;-59
2023/12/05 00:29:03;;;;;;;1.33;1.27;;;;;;;0.56;100.00;95664.03;29395;263;63001;-59
2023/12/05 00:29:34;;;;;;;0.70;0.70;;;;;;;0.60;100.00;95665.13;29373;268;63009;-59
2023/12/05 00:30:06;;;;;;;1.12;1.12;;;;;;;0.64;100.00;95672.37;29395;197;63005;-60
2023/12/05 00:30:37;;;;;;;0.70;0.70;;;;;;;0.65;100.00;95662.50;29395;263;63009;-60
2023/12/05 00:31:09;;;;;;;0.80;0.80;;;;;;;0.66;100.00;95664.91;29395;224;63005;-60
2023/12/05 00:31:43;;;;;;;0.70;0.70;;;;;;;0.63;100.00;95664.63;29395;230;63009;-60
2023/12/05 00:32:14;;;;;;;1.05;1.05;;;;;;;0.62;100.00;95663.81;29373;220;63005;-59
2023/12/05 00:32:46;;;;;;;0.70;0.70;;;;;;;0.61;100.00;95672.06;29371;280;64013;-60
2023/12/05 00:33:17;;;;;;;0.70;0.70;;;;;;;0.60;100.00;95668.59;29373;228;63004;-59
2023/12/05 00:33:49;;;;;;;1.23;1.12;;;;;;;0.63;100.00;95665.41;29373;203;63009;-60
2023/12/05 00:34:20;;;;;;;0.80;0.80;;;;;;;0.68;100.00;95669.19;29395;220;63004;-59
2023/12/05 00:34:51;;;;;;;0.90;0.90;;;;;;;0.70;100.00;95661.69;29373;197;63009;-59
2023/12/05 00:35:24;;;;;;;2.67;1.20;;;;;;;0.74;100.00;95665.44;29373;243;63004;-60
2023/12/05 00:35:56;;;;;;;0.70;0.70;;;;;;;0.73;100.00;95672.66;29395;229;63022;-61
2023/12/05 00:36:28;;;;;;;6.95;4.05;;;;;;;0.75;100.00;95667.84;29395;252;63005;-59
2023/12/05 00:37:00;;;;;;;0.70;0.70;;;;;;;0.76;100.00;95668.66;29395;331;63009;-58
2023/12/05 00:37:31;;;;;;;0.70;0.70;;;;;;;0.77;100.00;95660.38;29395;213;63005;-57
2023/12/05 00:38:02;;;;;;;2.40;1.08;;;;;;;0.80;100.00;95667.06;29394;216;64032;-59
2023/12/05 00:38:34;;;;;;;0.80;0.80;;;;;;;0.77;100.00;95663.06;29395;197;63005;-60
2023/12/05 00:39:05;;;;;;;3.78;2.42;;;;;;;0.76;100.00;95663.31;29395;196;63014;-58
2023/12/05 00:39:36;;;;;;;0.70;0.70;;;;;;;0.75;100.00;95662.50;29395;211;63004;-60
2023/12/05 00:40:08;;;;;;;0.70;0.70;;;;;;;0.75;100.00;95669.72;29395;197;63009;-59
2023/12/05 00:40:39;;;;;;;0.70;0.70;;;;;;;0.77;100.00;95664.91;29395;206;63004;-59
2023/12/05 00:41:11;;;;;;;0.90;0.90;;;;;;;0.79;100.00;95662.78;29395;212;63009;-60
2023/12/05 00:41:42;;;;;;;0.80;0.80;;;;;;;0.79;100.00;95668.12;29373;205;63004;-59
2023/12/05 00:42:13;;;;;;;0.70;0.70;;;;;;;0.76;100.00;95674.00;29395;196;63017;-60
2023/12/05 00:42:45;;;;;;;0.70;0.70;;;;;;;0.74;100.00;95674.25;29395;196;63004;-60
2023/12/05 00:43:16;;;;;;;0.70;0.70;;;;;;;0.71;100.00;95671.28;29394;219;64013;-60
2023/12/05 00:43:47;;;;;;;0.70;0.70;;;;;;;0.71;100.00;95671.28;29395;233;63005;-60
2023/12/05 00:44:18;;;;;;;0.68;0.68;;;;;;;0.71;100.00;95673.97;29395;239;63009;-61
2023/12/05 00:44:50;;;;;;;0.70;0.70;;;;;;;0.69;100.00;95679.59;29395;293;63005;-60
2023/12/05 00:45:22;;;;;;;0.70;0.70;;;;;;;0.68;100.00;95678.00;29395;226;63009;-59
2023/12/05 00:45:55;;;;;;;1.20;1.20;;;;;;;0.65;100.00;95673.97;29395;239;63005;-60
2023/12/05 00:46:27;;;;;;;0.70;0.70;;;;;;;0.64;100.00;95675.03;29395;268;63009;-61
2023/12/05 00:47:03;;;;;;;0.70;0.70;;;;;;;0.64;100.00;95676.91;29395;267;63017;-61
2023/12/05 00:47:34;;;;;;;0.70;0.70;;;;;;;0.69;100.00;95676.12;29394;198;64013;-61
2023/12/05 00:48:05;;;;;;;0.70;0.70;;;;;;;0.71;100.00;95673.97;29373;198;63004;-61
2023/12/05 00:48:37;;;;;;;0.70;0.70;;;;;;;0.71;100.00;95666.75;29395;237;63009;-59
2023/12/05 00:49:08;;;;;;;0.62;0.62;;;;;;;0.68;100.00;95666.50;29395;205;63004;-61
2023/12/05 00:49:40;;;;;;;0.70;0.70;;;;;;;0.64;100.00;95671.56;29373;220;63008;-61
2023/12/05 00:50:11;;;;;;;0.70;0.70;;;;;;;0.63;100.00;95676.09;29395;216;63005;-61
2023/12/05 00:50:43;;;;;;;1.25;1.25;;;;;;;0.60;100.00;95667.81;29395;199;63009;-61
2023/12/05 00:51:16;;;;;;;0.70;0.70;;;;;;;0.59;100.00;95667.00;29395;213;63005;-62
2023/12/05 00:51:48;;;;;;;0.70;0.70;;;;;;;0.60;100.00;95665.94;29373;199;63009;-60
2023/12/05 00:52:20;;;;;;;0.70;0.70;;;;;;;0.60;100.00;95665.13;29373;239;63005;-60
2023/12/05 00:52:51;;;;;;;1.55;1.55;;;;;;;0.64;100.00;95666.22;29394;197;64013;-59
2023/12/05 00:53:22;;;;;;;0.60;0.60;;;;;;;0.65;100.00;95668.62;29395;243;63005;-61
2023/12/05 00:53:53;;;;;;;0.95;0.95;;;;;;;0.70;100.00;95670.50;29373;283;63009;-62
2023/12/05 00:54:25;;;;;;;0.85;0.85;;;;;;;0.69;100.00;95668.12;29395;199;63004;-60
2023/12/05 00:54:57;;;;;;;0.80;0.80;;;;;;;0.64;100.00;95679.56;29395;245;63009;-62
2023/12/05 00:55:29;;;;;;;0.70;0.70;;;;;;;0.59;100.00;95675.00;29373;296;63004;-60
2023/12/05 00:56:01;;;;;;;0.70;0.70;;;;;;;0.56;100.00;95664.84;29373;231;63009;-61
2023/12/05 00:56:32;;;;;;;0.70;0.70;;;;;;;0.54;100.00;95666.97;29395;214;63004;-65
2023/12/05 00:57:04;;;;;;;0.70;0.70;;;;;;;0.52;100.00;95669.09;29373;202;63008;-62
2023/12/05 00:57:36;;;;;;;0.77;0.77;;;;;;;0.56;100.00;95675.50;29395;232;63004;-61
2023/12/05 00:58:07;;;;;;;1.05;1.05;;;;;;;0.63;100.00;95670.75;29371;248;64014;-62
2023/12/05 00:58:38;;;;;;;1.08;1.08;;;;;;;0.68;100.00;95674.50;29395;236;63005;-61
2023/12/05 00:59:09;;;;;;;1.17;1.17;;;;;;;0.71;100.00;95665.97;29395;237;63009;-61
2023/12/05 00:59:40;;;;;;;1.12;1.12;;;;;;;0.75;100.00;95664.37;29395;259;63005;-59
2023/12/05 01:00:13;;;;;;;0.60;0.60;;;;;;;0.74;100.00;95673.44;29395;246;63009;-60
2023/12/05 01:00:44;;;;;;;0.70;0.70;;;;;;;0.71;100.00;95672.09;29373;236;63005;-59
2023/12/05 01:01:19;;;;;;;0.70;0.70;;;;;;;0.71;100.00;95665.97;29395;283;63009;-61
2023/12/05 01:01:51;;;;;;;0.70;0.70;;;;;;;0.69;100.00;95678.78;29395;295;63005;-61
2023/12/05 01:02:23;;;;;;;0.70;0.70;;;;;;;0.69;100.00;95678.78;29373;202;63009;-59
2023/12/05 01:02:54;;;;;;;1.12;1.12;;;;;;;0.74;100.00;95676.91;29373;264;63007;-62
2023/12/05 01:03:25;;;;;;;0.60;0.60;;;;;;;0.80;100.00;95680.41;29371;204;64013;-62
2023/12/05 01:03:56;;;;;;;0.60;0.60;;;;;;;0.78;100.00;95682.53;29394;198;64004;-61
2023/12/05 01:04:27;;;;;;;0.70;0.70;;;;;;;0.79;100.00;95678.81;29395;214;63008;-62
2023/12/05 01:04:59;;;;;;;0.70;0.70;;;;;;;0.78;100.00;95682.53;29395;252;63004;-62
2023/12/05 01:05:32;;;;;;;1.10;1.10;;;;;;;0.76;100.00;95677.47;29395;197;63009;-62
2023/12/05 01:06:06;;;;;;;0.70;0.70;;;;;;;0.75;100.00;95683.88;29395;225;63009;-62
2023/12/05 01:06:37;;;;;;;0.70;0.70;;;;;;;0.72;100.00;95692.41;29395;242;63009;-62
2023/12/05 01:07:12;;;;;;;0.68;0.68;;;;;;;0.71;100.00;95687.31;29395;204;63005;-60
2023/12/05 01:07:45;;;;;;;0.60;0.60;;;;;;;0.73;100.00;95690.53;29395;228;63019;-61
2023/12/05 01:08:17;;;;;;;1.05;1.05;;;;;;;0.72;100.00;95688.91;29373;246;63000;-60
2023/12/05 01:08:48;;;;;;;0.70;0.70;;;;;;;0.71;100.00;95692.66;29394;204;64013;-59
2023/12/05 01:09:20;;;;;;;0.70;0.70;;;;;;;0.71;100.00;95698.00;29395;205;63005;-60
2023/12/05 01:09:51;;;;;;;0.70;0.70;;;;;;;0.69;100.00;95690.28;29395;203;63009;-62
2023/12/05 01:10:22;;;;;;;0.60;0.60;;;;;;;0.68;100.00;95693.19;29395;236;63004;-61
2023/12/05 01:10:53;;;;;;;0.70;0.70;;;;;;;0.66;100.00;95694.25;29395;206;63009;-60
2023/12/05 01:11:24;;;;;;;0.62;0.62;;;;;;;0.66;100.00;95691.59;29395;220;63004;-60
2023/12/05 01:11:56;;;;;;;0.70;0.70;;;;;;;0.64;100.00;95699.06;29395;271;63012;-60
2023/12/05 01:12:28;;;;;;;0.60;0.60;;;;;;;0.63;100.00;95686.78;29395;233;63000;-61
2023/12/05 01:13:01;;;;;;;0.70;0.70;;;;;;;0.68;100.00;95693.19;29395;236;63005;-60
2023/12/05 01:13:32;;;;;;;0.70;0.70;;;;;;;0.66;100.00;95696.94;29395;222;63005;-60
2023/12/05 01:14:04;;;;;;;0.70;0.70;;;;;;;0.65;100.00;95691.84;29394;197;64014;-61
2023/12/05 01:14:35;;;;;;;0.70;0.70;;;;;;;0.63;100.00;95693.97;29395;233;63005;-60
2023/12/05 01:15:08;;;;;;;0.70;0.70;;;;;;;0.61;100.00;95694.22;29395;198;63009;-60
2023/12/05 01:15:39;;;;;;;2.15;2.05;;;;;;;0.59;100.00;95693.69;29395;224;63005;-62
2023/12/05 01:16:11;;;;;;;0.70;0.70;;;;;;;0.62;100.00;95695.03;29395;212;63009;-60
2023/12/05 01:16:43;;;;;;;0.70;0.70;;;;;;;0.60;100.00;95697.97;29395;333;63005;-61
2023/12/05 01:17:16;;;;;;;0.70;0.70;;;;;;;0.60;100.00;95702.50;29395;203;63009;-62
2023/12/05 01:17:47;;;;;;;0.60;0.60;;;;;;;0.59;100.00;95699.03;29395;282;63004;-61
2023/12/05 01:18:18;;;;;;;0.95;0.95;;;;;;;0.66;100.00;95696.94;29395;202;63009;-62
2023/12/05 01:18:50;;;;;;;0.70;0.70;;;;;;;0.69;100.00;95700.94;29395;263;63004;-61
2023/12/05 01:19:21;;;;;;;0.70;0.70;;;;;;;0.73;100.00;95695.88;29394;305;64013;-60
2023/12/05 01:19:52;;;;;;;0.70;0.70;;;;;;;0.76;100.00;95706.03;29395;201;63004;-61
2023/12/05 01:20:23;;;;;;;0.70;0.70;;;;;;;0.79;100.00;95700.19;29395;221;63009;-63
2023/12/05 01:20:55;;;;;;;1.00;1.00;;;;;;;0.85;100.00;95693.81;29395;213;63005;-60
2023/12/05 01:21:26;;;;;;;0.70;0.70;;;;;;;0.91;100.00;95708.78;29395;292;63009;-61
2023/12/05 01:21:57;;;;;;;0.70;0.70;;;;;;;0.88;100.00;95701.28;29395;276;63005;-61
2023/12/05 01:22:28;;;;;;;0.70;0.70;;;;;;;0.92;100.00;95699.72;29395;235;63009;-61
2023/12/05 01:23:00;;;;;;;0.70;0.70;;;;;;;0.91;100.00;95704.25;29395;209;63005;-61
2023/12/05 01:23:32;;;;;;;0.70;0.70;;;;;;;0.88;100.00;95704.78;29395;228;63009;-63
2023/12/05 01:24:04;;;;;;;0.70;0.70;;;;;;;0.88;100.00;95709.31;29395;228;63007;-68
2023/12/05 01:24:35;;;;;;;0.70;0.70;;;;;;;0.84;100.00;95703.69;29394;235;64013;-63
2023/12/05 01:25:07;;;;;;;0.70;0.70;;;;;;;0.86;100.00;95701.56;29395;212;63016;-60
2023/12/05 01:25:38;;;;;;;0.70;0.70;;;;;;;0.87;100.00;95697.00;29395;224;63009;-69
2023/12/05 01:26:10;;;;;;;0.70;0.70;;;;;;;0.85;100.00;95704.47;29395;204;63004;-62
2023/12/05 01:26:41;;;;;;;0.62;0.62;;;;;;;0.83;100.00;95695.94;29395;236;63009;-60
2023/12/05 01:27:12;;;;;;;0.70;0.70;;;;;;;0.83;100.00;95702.06;29395;204;63004;-62
2023/12/05 01:27:43;;;;;;;0.70;0.70;;;;;;;0.85;100.00;95693.81;29395;297;63008;-61
2023/12/05 01:28:15;;;;;;;0.70;0.70;;;;;;;0.86;100.00;95692.75;29395;244;63005;-60
2023/12/05 01:28:46;;;;;;;0.70;0.70;;;;;;;0.86;100.00;95690.06;29395;235;63009;-64
2023/12/05 01:29:17;;;;;;;0.60;0.60;;;;;;;0.85;100.00;95699.94;29394;199;64009;-64
2023/12/05 01:29:49;;;;;;;0.70;0.70;;;;;;;0.85;100.00;95704.47;29395;243;63009;-62
2023/12/05 01:30:20;;;;;;;0.90;0.90;;;;;;;0.82;100.00;95702.34;29395;222;63005;-62
2023/12/05 01:30:51;;;;;;;0.70;0.70;;;;;;;0.88;100.00;95698.62;29395;202;63009;-60
2023/12/05 01:31:22;;;;;;;0.60;0.60;;;;;;;0.89;100.00;95700.22;29394;228;64005;-60
2023/12/05 01:31:53;;;;;;;0.70;0.70;;;;;;;0.87;100.00;95697.00;29395;198;63009;-60
2023/12/05 01:32:25;;;;;;;0.70;0.70;;;;;;;0.86;100.00;95692.75;29395;238;63004;-62
2023/12/05 01:32:56;;;;;;;0.70;0.70;;;;;;;0.83;100.00;95696.72;29395;244;63009;-70
2023/12/05 01:33:27;;;;;;;0.70;0.70;;;;;;;0.81;100.00;95693.50;29395;202;63011;-61
2023/12/05 01:33:58;;;;;;;0.70;0.70;;;;;;;0.84;100.00;95695.66;29395;213;63009;-62
2023/12/05 01:34:29;;;;;;;0.70;0.70;;;;;;;0.85;100.00;95694.59;29394;222;64009;-61
2023/12/05 01:35:01;;;;;;;0.70;0.70;;;;;;;0.86;100.00;95696.22;29395;197;63008;-60
2023/12/05 01:35:32;;;;;;;0.70;0.70;;;;;;;0.86;100.00;95690.88;29395;204;63005;-61
2023/12/05 01:36:10;;;;;;;0.70;0.70;;;;;;;0.86;100.00;95695.41;29395;219;63009;-62
2023/12/05 01:36:42;;;;;;;0.70;0.70;;;;;;;0.85;100.00;95693.81;29395;223;63005;-60
2023/12/05 01:37:14;;;;;;;0.70;0.70;;;;;;;0.86;100.00;95700.75;29395;239;63009;-60
2023/12/05 01:37:45;;;;;;;0.70;0.70;;;;;;;0.85;100.00;95699.94;29395;199;63005;-62
2023/12/05 01:38:18;;;;;;;0.60;0.60;;;;;;;0.86;100.00;95698.09;29395;219;63005;-62
2023/12/05 01:38:49;;;;;;;0.70;0.70;;;;;;;0.86;100.00;95696.22;29395;293;63017;-60
2023/12/05 01:39:20;;;;;;;0.77;0.77;;;;;;;0.87;100.00;95700.50;29394;239;64009;-61
2023/12/05 01:39:52;;;;;;;0.60;0.60;;;;;;;0.88;100.00;95701.28;29394;212;64020;-58
2023/12/05 01:40:23;;;;;;;0.70;0.70;;;;;;;0.88;100.00;95701.28;29395;223;63009;-62
2023/12/05 01:40:54;;;;;;;0.70;0.70;;;;;;;0.88;100.00;95693.28;29395;282;63000;-61
2023/12/05 01:41:25;;;;;;;0.70;0.70;;;;;;;0.93;100.00;95693.31;29395;236;63009;-61
2023/12/05 01:41:59;;;;;;;0.70;0.70;;;;;;;0.95;100.00;95688.50;29395;198;63004;-61
2023/12/05 01:42:35;;;;;;;0.70;0.70;;;;;;;0.94;100.00;95692.25;29395;237;63019;-60
2023/12/05 01:43:07;;;;;;;0.70;0.70;;;;;;;0.94;100.00;95692.25;29395;202;63011;-60
2023/12/05 01:43:38;;;;;;;0.70;0.70;;;;;;;0.93;100.00;95691.44;29395;245;63009;-60
2023/12/05 01:44:09;;;;;;;0.70;0.70;;;;;;;1.03;100.00;95696.03;29395;240;63005;-63
2023/12/05 01:44:42;;;;;;;0.70;0.70;;;;;;;1.04;100.00;95696.84;29395;202;63009;-61
2023/12/05 01:45:13;;;;;;;0.70;0.70;;;;;;;1.08;100.00;95706.72;29394;232;64009;-59
2023/12/05 01:45:44;;;;;;;0.80;0.80;;;;;;;1.09;100.00;95700.31;29395;205;63009;-59
2023/12/05 01:46:17;;;;;;;0.70;0.70;;;;;;;1.07;100.00;95694.41;29395;206;63005;-59
2023/12/05 01:46:48;;;;;;;0.82;0.82;;;;;;;1.09;100.00;95704.84;29395;202;63009;-62
2023/12/05 01:47:20;;;;;;;0.70;0.70;;;;;;;1.08;100.00;95698.69;29395;240;63004;-61
2023/12/05 01:47:52;;;;;;;0.62;0.62;;;;;;;1.06;100.00;95706.16;29395;211;63009;-61
2023/12/05 01:48:25;;;;;;;0.70;0.70;;;;;;;1.03;100.00;95701.38;29395;209;63004;-61
2023/12/05 01:48:58;;;;;;;0.70;0.70;;;;;;;1.00;100.00;95704.56;29395;276;63008;-60
2023/12/05 01:49:33;;;;;;;0.80;0.80;;;;;;;1.04;100.00;95702.94;29395;236;63004;-60
2023/12/05 01:50:10;;;;;;;0.70;0.70;;;;;;;1.05;100.00;95701.87;29395;230;63022;-63
2023/12/05 01:50:43;;;;;;;0.70;0.70;;;;;;;1.06;100.00;95705.34;29394;196;64009;-62
2023/12/05 01:51:16;;;;;;;0.70;0.70;;;;;;;1.08;100.00;95708.56;29395;220;63009;-59
2023/12/05 01:51:47;;;;;;;0.60;0.60;;;;;;;1.07;100.00;95710.44;29395;226;63005;-60
2023/12/05 01:52:20;;;;;;;0.60;0.60;;;;;;;1.09;100.00;95710.19;29395;236;63009;-59
2023/12/05 01:52:58;;;;;;;0.77;0.77;;;;;;;1.23;100.00;95706.78;29395;224;63005;-60
2023/12/05 01:53:31;;;;;;;0.70;0.70;;;;;;;1.22;100.00;95705.16;29395;221;63014;-61
2023/12/05 01:54:03;;;;;;;0.70;0.70;;;;;;;1.18;100.00;95701.41;29395;226;63010;-60
2023/12/05 01:54:37;;;;;;;0.70;0.70;;;;;;;1.15;100.00;95699.25;29373;212;63009;-61
2023/12/05 01:55:12;;;;;;;0.70;0.70;;;;;;;1.12;100.00;95705.13;29395;237;63004;-60
2023/12/05 01:55:44;;;;;;;0.70;0.70;;;;;;;1.09;100.00;95704.84;29394;240;64013;-59
2023/12/05 01:56:15;;;;;;;0.60;0.60;;;;;;;1.07;100.00;95702.44;29395;231;63004;-58
2023/12/05 01:56:50;;;;;;;0.65;0.65;;;;;;;1.06;100.00;95706.16;29395;215;63008;-59
2023/12/05 01:57:24;;;;;;;0.70;0.70;;;;;;;1.06;100.00;95700.00;29395;209;63005;-59
2023/12/05 01:57:57;;;;;;;0.70;0.70;;;;;;;1.05;100.00;95696.53;29395;215;63009;-60
2023/12/05 01:58:34;;;;;;;0.70;0.70;;;;;;;1.03;100.00;95701.38;29395;281;63005;-59
2023/12/05 01:59:06;;;;;;;0.70;0.70;;;;;;;1.01;100.00;95703.50;29395;218;63009;-60
2023/12/05 01:59:37;;;;;;;0.70;0.70;;;;;;;1.00;100.00;95697.34;29395;206;63005;-59
2023/12/05 02:00:10;;;;;;;0.70;0.70;;;;;;;1.02;100.00;95694.41;29395;250;63016;-66
2023/12/05 02:00:42;;;;;;;0.62;0.62;;;;;;;1.04;100.00;95705.62;29373;216;63005;-59
2023/12/05 02:01:15;;;;;;;0.60;0.60;;;;;;;1.03;100.00;95701.38;29394;241;64013;-61
2023/12/05 02:01:52;;;;;;;0.60;0.60;;;;;;;1.05;100.00;95703.75;29395;221;63004;-59
2023/12/05 02:02:24;;;;;;;0.60;0.60;;;;;;;1.03;100.00;95696.03;29395;210;63004;-59
2023/12/05 02:02:56;;;;;;;0.70;0.70;;;;;;;1.01;100.00;95692.81;29395;199;63004;-60
2023/12/05 02:03:28;;;;;;;0.60;0.60;;;;;;;1.01;100.00;95698.16;29395;216;63009;-59
2023/12/05 02:03:59;;;;;;;0.60;0.60;;;;;;;0.98;100.00;95699.47;29395;207;63004;-59
2023/12/05 02:04:31;;;;;;;0.70;0.70;;;;;;;0.98;100.00;95701.34;29395;209;63008;-59
2023/12/05 02:05:04;;;;;;;2.33;2.22;;;;;;;1.00;100.00;95691.22;29395;211;63005;-61
2023/12/05 02:05:36;;;;;;;0.70;0.70;;;;;;;1.02;100.00;95694.41;29395;220;63009;-57
2023/12/05 02:06:08;;;;;;;0.70;0.70;;;;;;;1.02;100.00;95694.41;29395;215;63005;-59
2023/12/05 02:06:39;;;;;;;0.70;0.70;;;;;;;1.04;100.00;95694.94;29394;225;64013;-60
2023/12/05 02:07:12;;;;;;;0.70;0.70;;;;;;;1.06;100.00;95695.47;29395;236;63005;-59
2023/12/05 02:07:44;;;;;;;0.70;0.70;;;;;;;1.05;100.00;95699.22;29395;289;63009;-60
2023/12/05 02:08:18;;;;;;;0.70;0.70;;;;;;;1.01;100.00;95692.81;29395;296;63005;-62
2023/12/05 02:08:50;;;;;;;0.70;0.70;;;;;;;1.00;100.00;95691.22;29395;365;63009;-60
2023/12/05 02:09:22;;;;;;;0.62;0.62;;;;;;;1.03;100.00;95696.03;29395;227;63004;-59
2023/12/05 02:09:54;;;;;;;0.60;0.60;;;;;;;1.06;100.00;95690.12;29395;277;63004;-59
2023/12/05 02:10:25;;;;;;;0.70;0.70;;;;;;;1.04;100.00;95681.56;29395;257;63004;-59
2023/12/05 02:10:57;;;;;;;0.70;0.70;;;;;;;1.07;100.00;95690.94;29395;235;63009;-60
2023/12/05 02:11:32;;;;;;;0.60;0.60;;;;;;;1.08;100.00;95693.34;29395;218;63004;-59
2023/12/05 02:12:05;;;;;;;0.70;0.70;;;;;;;1.19;100.00;95676.28;29394;225;64013;-60
2023/12/05 02:12:39;;;;;;;0.68;0.68;;;;;;;1.19;100.00;95684.31;29395;227;63005;-58
2023/12/05 02:13:10;;;;;;;0.70;0.70;;;;;;;1.21;100.00;95676.84;29395;209;63009;-58
2023/12/05 02:13:43;;;;;;;0.60;0.60;;;;;;;1.20;100.00;95675.22;29395;216;63005;-60
2023/12/05 02:14:15;;;;;;;0.60;0.60;;;;;;;1.17;100.00;95675.75;29395;229;63009;-59
2023/12/05 02:14:46;;;;;;;0.70;0.70;;;;;;;1.14;100.00;95670.94;29395;306;63005;-57
2023/12/05 02:15:21;;;;;;;0.70;0.70;;;;;;;1.18;100.00;95673.88;29395;202;63009;-59
2023/12/05 02:16:21;;;;;;;0.70;0.70;;;;;;;1.12;100.00;95673.06;29395;198;63005;-59
2023/12/05 02:17:29;;;;;;;0.60;0.60;;;;;;;1.07;100.00;95681.06;29395;406;63009;-58
2023/12/05 02:18:29;;;;;;;0.70;0.70;;;;;;;1.07;100.00;95678.38;29394;233;64013;-59
2023/12/05 02:20:01;;;;;;;0.80;0.80;;;;;;;1.05;100.00;95688.53;29395;234;63004;-58
2023/12/05 02:21:00;;;;;;;0.70;0.70;;;;;;;1.04;100.00;95692.25;29395;228;63009;-58
2023/12/05 02:21:34;;;;;;;0.70;0.70;;;;;;;1.07;100.00;95686.41;29395;230;63005;-59
2023/12/05 02:22:36;;;;;;;0.70;0.70;;;;;;;1.06;100.00;95695.47;29395;206;63005;-60
2023/12/05 02:23:41;;;;;;;0.68;0.68;;;;;;;1.09;100.00;95683.47;29415;202;64009;-59
2023/12/05 02:24:49;;;;;;;0.60;0.60;;;;;;;1.13;100.00;95684.56;29373;284;63009;-59
2023/12/05 02:26:15;;;;;;;0.70;0.70;;;;;;;1.17;100.00;95681.09;29373;296;63004;-59
2023/12/05 02:27:19;;;;;;;0.70;0.70;;;;;;;1.21;100.00;95676.84;29373;211;63008;-58
2023/12/05 02:27:52;;;;;;;0.70;0.70;;;;;;;1.30;100.00;95677.94;29373;275;63005;-58
2023/12/05 02:28:25;;;;;;;0.70;0.70;;;;;;;1.31;100.00;95682.22;29371;228;64014;-59
2023/12/05 02:28:56;;;;;;;0.70;0.70;;;;;;;1.27;100.00;95680.34;29373;222;63005;-58
2023/12/05 02:29:28;;;;;;;0.70;0.70;;;;;;;1.22;100.00;95683.78;29395;197;63009;-58
2023/12/05 02:29:59;;;;;;;0.68;0.68;;;;;;;1.16;100.00;95670.66;29373;258;63005;-58
2023/12/05 02:30:33;;;;;;;0.70;0.70;;;;;;;1.12;100.00;95673.06;29395;227;63009;-59
2023/12/05 02:31:05;;;;;;;0.70;0.70;;;;;;;1.11;100.00;95676.78;29395;203;63005;-59
2023/12/05 02:31:37;;;;;;;0.70;0.70;;;;;;;1.12;100.00;95675.72;29395;198;63009;-59
2023/12/05 02:33:19;;;;;;;0.67;0.67;;;;;;;1.12;100.00;95675.72;88174;203;64004;-57
2023/12/05 02:33:51;;;;;;;0.70;0.70;;;;;;;1.11;100.00;95681.34;29394;227;64009;-57
2023/12/05 02:34:22;;;;;;;0.70;0.70;;;;;;;1.09;100.00;95680.78;29395;217;63008;-61
2023/12/05 02:34:54;;;;;;;0.70;0.70;;;;;;;1.09;100.00;95678.13;29395;353;63023;-58
2023/12/05 02:35:25;;;;;;;0.70;0.70;;;;;;;1.07;100.00;95670.38;29395;209;63011;-57
2023/12/05 02:36:43;;;;;;;0.70;0.70;;;;;;;1.06;100.00;95679.44;29395;222;63005;-57
2023/12/05 02:37:47;;;;;;;0.60;0.60;;;;;;;1.08;100.00;95682.66;29395;197;63004;-57
2023/12/05 02:38:31;;;;;;;0.68;0.68;;;;;;;1.03;100.00;95684.53;29395;220;63009;-57
2023/12/05 02:39:18;;;;;;;0.60;0.60;;;;;;;1.05;100.00;95683.19;29394;196;64009;-57
2023/12/05 02:40:24;;;;;;;0.70;0.70;;;;;;;1.06;100.00;95684.78;29395;197;63023;-59
2023/12/05 02:41:13;;;;;;;0.70;0.70;;;;;;;1.11;100.00;95682.13;29373;287;63005;-57
2023/12/05 02:41:52;;;;;;;0.70;0.70;;;;;;;1.11;100.00;95692.03;29373;212;63009;-57
2023/12/05 02:42:27;;;;;;;0.70;0.70;;;;;;;1.09;100.00;95694.97;29395;231;63010;-58